sensor_id;sensor_type;location;lat;lon;timestamp;P1;durP1;ratioP1;P2;durP2;ratioP2
28934;SDS011;16044;52.726;-2.108;2022-08-04T00:01:30;9.13;;;2.17;;
28934;SDS011;16044;52.726;-2.108;2022-08-04T00:04:09;10.05;;;1.88;;
28934;SDS011;16044;52.726;-2.108;2022-08-04T00:07:07;10.57;;;2.25;;
28934;SDS011;16044;52.726;-2.108;2022-08-04T00:10:10;12.95;;;2.00;;
28934;SDS011;16044;52.726;-2.108;2022-08-04T00:12:46;10.60;;;2.25;;
28934;SDS011;16044;52.726;-2.108;2022-08-04T00:15:16;15.07;;;3.38;;
28934;SDS011;16044;52.726;-2.108;2022-08-04T00:17:44;12.13;;;2.30;;
28934;SDS011;16044;52.726;-2.108;2022-08-04T00:20:28;7.47;;;1.75;;
28934;SDS011;16044;52.726;-2.108;2022-08-04T00:22:59;12.20;;;2.47;;
28934;SDS011;16044;52.726;-2.108;2022-08-04T00:25:27;11.98;;;2.30;;
28934;SDS011;16044;52.726;-2.108;2022-08-04T00:27:55;10.55;;;2.53;;
28934;SDS011;16044;52.726;-2.108;2022-08-04T00:30:23;10.25;;;2.25;;
28934;SDS011;16044;52.726;-2.108;2022-08-04T00:32:51;10.68;;;2.28;;
28934;SDS011;16044;52.726;-2.108;2022-08-04T00:35:18;13.57;;;2.08;;
28934;SDS011;16044;52.726;-2.108;2022-08-04T00:37:46;10.93;;;2.17;;
28934;SDS011;16044;52.726;-2.108;2022-08-04T00:40:20;13.13;;;2.45;;
28934;SDS011;16044;52.726;-2.108;2022-08-04T00:55:21;14.50;;;3.22;;
28934;SDS011;16044;52.726;-2.108;2022-08-04T01:01:04;16.27;;;3.05;;
28934;SDS011;16044;52.726;-2.108;2022-08-04T01:10:03;15.32;;;2.90;;
28934;SDS011;16044;52.726;-2.108;2022-08-04T01:16:02;10.32;;;1.75;;
28934;SDS011;16044;52.726;-2.108;2022-08-04T01:29:48;15.85;;;2.70;;
28934;SDS011;16044;52.726;-2.108;2022-08-04T01:32:30;18.87;;;3.17;;
28934;SDS011;16044;52.726;-2.108;2022-08-04T01:35:03;12.40;;;2.55;;
28934;SDS011;16044;52.726;-2.108;2022-08-04T01:40:17;13.30;;;2.42;;
28934;SDS011;16044;52.726;-2.108;2022-08-04T01:42:48;16.75;;;3.15;;
28934;SDS011;16044;52.726;-2.108;2022-08-04T01:45:19;13.18;;;2.60;;
28934;SDS011;16044;52.726;-2.108;2022-08-04T01:47:50;16.50;;;2.63;;
28934;SDS011;16044;52.726;-2.108;2022-08-04T01:50:20;13.75;;;2.30;;
28934;SDS011;16044;52.726;-2.108;2022-08-04T01:52:51;10.55;;;2.03;;
28934;SDS011;16044;52.726;-2.108;2022-08-04T01:55:20;14.93;;;2.80;;
28934;SDS011;16044;52.726;-2.108;2022-08-04T01:57:48;12.25;;;2.70;;
28934;SDS011;16044;52.726;-2.108;2022-08-04T02:00:18;16.45;;;2.90;;
28934;SDS011;16044;52.726;-2.108;2022-08-04T02:02:49;10.13;;;2.70;;
28934;SDS011;16044;52.726;-2.108;2022-08-04T02:05:18;14.75;;;2.67;;
28934;SDS011;16044;52.726;-2.108;2022-08-04T02:22:30;12.73;;;2.63;;
28934;SDS011;16044;52.726;-2.108;2022-08-04T02:25:03;12.10;;;2.85;;
28934;SDS011;16044;52.726;-2.108;2022-08-04T02:27:49;10.10;;;2.72;;
28934;SDS011;16044;52.726;-2.108;2022-08-04T02:36:39;14.85;;;2.95;;
28934;SDS011;16044;52.726;-2.108;2022-08-04T02:39:09;13.10;;;2.92;;
28934;SDS011;16044;52.726;-2.108;2022-08-04T02:41:38;15.02;;;2.72;;
28934;SDS011;16044;52.726;-2.108;2022-08-04T02:44:09;14.82;;;2.90;;
28934;SDS011;16044;52.726;-2.108;2022-08-04T02:46:36;12.38;;;2.20;;
28934;SDS011;16044;52.726;-2.108;2022-08-04T02:49:08;12.48;;;2.50;;
28934;SDS011;16044;52.726;-2.108;2022-08-04T02:51:39;14.50;;;3.17;;
28934;SDS011;16044;52.726;-2.108;2022-08-04T02:54:08;17.35;;;2.67;;
28934;SDS011;16044;52.726;-2.108;2022-08-04T02:56:36;11.48;;;2.22;;
28934;SDS011;16044;52.726;-2.108;2022-08-04T02:59:06;14.07;;;2.95;;
28934;SDS011;16044;52.726;-2.108;2022-08-04T03:01:35;12.18;;;2.50;;
28934;SDS011;16044;52.726;-2.108;2022-08-04T03:10:29;11.63;;;2.75;;
28934;SDS011;16044;52.726;-2.108;2022-08-04T03:13:26;11.73;;;2.60;;
28934;SDS011;16044;52.726;-2.108;2022-08-04T03:39:02;12.40;;;2.60;;
28934;SDS011;16044;52.726;-2.108;2022-08-04T03:42:33;14.20;;;2.90;;
28934;SDS011;16044;52.726;-2.108;2022-08-04T03:48:27;12.07;;;2.10;;
28934;SDS011;16044;52.726;-2.108;2022-08-04T03:51:30;16.65;;;2.55;;
28934;SDS011;16044;52.726;-2.108;2022-08-04T03:55:20;14.50;;;2.47;;
28934;SDS011;16044;52.726;-2.108;2022-08-04T04:01:15;11.90;;;2.22;;
28934;SDS011;16044;52.726;-2.108;2022-08-04T04:13:14;9.05;;;2.30;;
28934;SDS011;16044;52.726;-2.108;2022-08-04T04:48:32;12.15;;;2.15;;
28934;SDS011;16044;52.726;-2.108;2022-08-04T04:57:12;12.68;;;2.40;;
28934;SDS011;16044;52.726;-2.108;2022-08-04T05:13:51;13.93;;;2.63;;
28934;SDS011;16044;52.726;-2.108;2022-08-04T05:16:41;8.55;;;2.10;;
28934;SDS011;16044;52.726;-2.108;2022-08-04T05:19:16;10.05;;;2.70;;
28934;SDS011;16044;52.726;-2.108;2022-08-04T05:25:13;9.60;;;2.63;;
28934;SDS011;16044;52.726;-2.108;2022-08-04T05:27:52;8.93;;;2.10;;
28934;SDS011;16044;52.726;-2.108;2022-08-04T05:30:29;9.00;;;2.42;;
28934;SDS011;16044;52.726;-2.108;2022-08-04T05:33:03;8.35;;;2.42;;
28934;SDS011;16044;52.726;-2.108;2022-08-04T05:35:37;6.80;;;1.88;;
28934;SDS011;16044;52.726;-2.108;2022-08-04T05:38:33;7.20;;;1.90;;
28934;SDS011;16044;52.726;-2.108;2022-08-04T05:41:03;12.27;;;2.90;;
28934;SDS011;16044;52.726;-2.108;2022-08-04T05:43:34;9.55;;;2.38;;
28934;SDS011;16044;52.726;-2.108;2022-08-04T05:46:03;10.32;;;2.17;;
28934;SDS011;16044;52.726;-2.108;2022-08-04T05:48:31;10.43;;;2.30;;
28934;SDS011;16044;52.726;-2.108;2022-08-04T05:50:59;10.25;;;2.35;;
28934;SDS011;16044;52.726;-2.108;2022-08-04T05:53:29;6.72;;;2.10;;
28934;SDS011;16044;52.726;-2.108;2022-08-04T05:55:56;9.10;;;2.42;;
28934;SDS011;16044;52.726;-2.108;2022-08-04T05:58:25;10.13;;;2.70;;
28934;SDS011;16044;52.726;-2.108;2022-08-04T06:01:00;8.13;;;2.10;;
28934;SDS011;16044;52.726;-2.108;2022-08-04T06:03:30;9.43;;;2.60;;
28934;SDS011;16044;52.726;-2.108;2022-08-04T06:06:00;7.53;;;2.10;;
28934;SDS011;16044;52.726;-2.108;2022-08-04T06:08:29;9.70;;;2.10;;
28934;SDS011;16044;52.726;-2.108;2022-08-04T06:10:58;10.82;;;1.90;;
28934;SDS011;16044;52.726;-2.108;2022-08-04T06:13:32;8.13;;;2.10;;
28934;SDS011;16044;52.726;-2.108;2022-08-04T06:16:15;13.63;;;2.65;;
28934;SDS011;16044;52.726;-2.108;2022-08-04T06:18:57;9.38;;;1.90;;
28934;SDS011;16044;52.726;-2.108;2022-08-04T06:21:49;10.07;;;2.50;;
28934;SDS011;16044;52.726;-2.108;2022-08-04T06:24:21;12.15;;;2.95;;
28934;SDS011;16044;52.726;-2.108;2022-08-04T06:26:50;10.60;;;2.63;;
28934;SDS011;16044;52.726;-2.108;2022-08-04T06:29:19;12.35;;;2.38;;
28934;SDS011;16044;52.726;-2.108;2022-08-04T06:31:53;9.05;;;2.53;;
28934;SDS011;16044;52.726;-2.108;2022-08-04T06:34:44;7.97;;;2.28;;
28934;SDS011;16044;52.726;-2.108;2022-08-04T06:37:12;9.30;;;2.30;;
28934;SDS011;16044;52.726;-2.108;2022-08-04T06:40:00;10.95;;;2.40;;
28934;SDS011;16044;52.726;-2.108;2022-08-04T06:42:50;11.00;;;2.40;;
28934;SDS011;16044;52.726;-2.108;2022-08-04T06:45:18;10.75;;;2.47;;
28934;SDS011;16044;52.726;-2.108;2022-08-04T06:47:46;11.27;;;2.25;;
28934;SDS011;16044;52.726;-2.108;2022-08-04T06:50:14;7.72;;;2.05;;
28934;SDS011;16044;52.726;-2.108;2022-08-04T06:53:02;6.22;;;1.95;;
28934;SDS011;16044;52.726;-2.108;2022-08-04T06:55:30;6.70;;;2.08;;
28934;SDS011;16044;52.726;-2.108;2022-08-04T06:57:58;9.95;;;2.10;;
28934;SDS011;16044;52.726;-2.108;2022-08-04T07:00:28;6.90;;;1.65;;
28934;SDS011;16044;52.726;-2.108;2022-08-04T07:02:57;8.77;;;2.00;;
28934;SDS011;16044;52.726;-2.108;2022-08-04T07:05:25;7.68;;;2.20;;
28934;SDS011;16044;52.726;-2.108;2022-08-04T07:07:52;6.38;;;1.88;;
28934;SDS011;16044;52.726;-2.108;2022-08-04T07:10:24;8.82;;;1.60;;
28934;SDS011;16044;52.726;-2.108;2022-08-04T07:12:57;5.95;;;1.70;;
28934;SDS011;16044;52.726;-2.108;2022-08-04T07:15:26;9.65;;;1.48;;
28934;SDS011;16044;52.726;-2.108;2022-08-04T07:17:54;4.85;;;1.40;;
28934;SDS011;16044;52.726;-2.108;2022-08-04T07:20:26;6.57;;;1.63;;
28934;SDS011;16044;52.726;-2.108;2022-08-04T07:23:04;5.07;;;1.10;;
28934;SDS011;16044;52.726;-2.108;2022-08-04T07:25:36;4.07;;;1.17;;
28934;SDS011;16044;52.726;-2.108;2022-08-04T07:28:26;4.97;;;1.42;;
28934;SDS011;16044;52.726;-2.108;2022-08-04T07:30:55;4.03;;;1.30;;
28934;SDS011;16044;52.726;-2.108;2022-08-04T07:33:24;6.93;;;1.48;;
28934;SDS011;16044;52.726;-2.108;2022-08-04T07:35:52;5.25;;;1.20;;
28934;SDS011;16044;52.726;-2.108;2022-08-04T07:38:40;4.20;;;0.90;;
28934;SDS011;16044;52.726;-2.108;2022-08-04T07:41:23;3.67;;;0.88;;
28934;SDS011;16044;52.726;-2.108;2022-08-04T07:44:09;9.68;;;1.10;;
28934;SDS011;16044;52.726;-2.108;2022-08-04T07:46:39;6.60;;;0.80;;
28934;SDS011;16044;52.726;-2.108;2022-08-04T07:49:06;7.20;;;0.80;;
28934;SDS011;16044;52.726;-2.108;2022-08-04T07:51:35;6.78;;;1.13;;
28934;SDS011;16044;52.726;-2.108;2022-08-04T07:54:03;5.95;;;0.70;;
28934;SDS011;16044;52.726;-2.108;2022-08-04T07:56:34;4.03;;;0.60;;
28934;SDS011;16044;52.726;-2.108;2022-08-04T07:59:02;4.10;;;0.57;;
28934;SDS011;16044;52.726;-2.108;2022-08-04T08:01:30;5.10;;;0.77;;
28934;SDS011;16044;52.726;-2.108;2022-08-04T08:03:58;7.07;;;0.80;;
28934;SDS011;16044;52.726;-2.108;2022-08-04T08:06:26;2.88;;;0.60;;
28934;SDS011;16044;52.726;-2.108;2022-08-04T08:09:00;4.05;;;0.68;;
28934;SDS011;16044;52.726;-2.108;2022-08-04T08:11:46;5.03;;;0.60;;
28934;SDS011;16044;52.726;-2.108;2022-08-04T08:14:34;3.58;;;0.77;;
28934;SDS011;16044;52.726;-2.108;2022-08-04T08:17:04;2.95;;;0.80;;
28934;SDS011;16044;52.726;-2.108;2022-08-04T08:19:31;4.47;;;1.00;;
28934;SDS011;16044;52.726;-2.108;2022-08-04T08:22:00;4.28;;;0.82;;
28934;SDS011;16044;52.726;-2.108;2022-08-04T08:24:28;2.35;;;0.60;;
28934;SDS011;16044;52.726;-2.108;2022-08-04T08:26:57;5.38;;;0.80;;
28934;SDS011;16044;52.726;-2.108;2022-08-04T08:29:25;3.75;;;0.65;;
28934;SDS011;16044;52.726;-2.108;2022-08-04T08:31:55;4.10;;;0.77;;
28934;SDS011;16044;52.726;-2.108;2022-08-04T08:34:30;3.45;;;0.75;;
28934;SDS011;16044;52.726;-2.108;2022-08-04T08:40:06;5.20;;;0.73;;
28934;SDS011;16044;52.726;-2.108;2022-08-04T08:43:18;4.35;;;0.55;;
28934;SDS011;16044;52.726;-2.108;2022-08-04T08:46:27;3.77;;;0.80;;
28934;SDS011;16044;52.726;-2.108;2022-08-04T08:49:23;3.28;;;0.60;;
28934;SDS011;16044;52.726;-2.108;2022-08-04T08:55:41;3.03;;;0.73;;
28934;SDS011;16044;52.726;-2.108;2022-08-04T09:04:28;4.75;;;0.90;;
28934;SDS011;16044;52.726;-2.108;2022-08-04T09:12:59;4.17;;;0.70;;
28934;SDS011;16044;52.726;-2.108;2022-08-04T09:22:07;3.88;;;0.73;;
28934;SDS011;16044;52.726;-2.108;2022-08-04T09:30:22;2.90;;;0.88;;
28934;SDS011;16044;52.726;-2.108;2022-08-04T09:36:19;4.28;;;0.95;;
28934;SDS011;16044;52.726;-2.108;2022-08-04T09:47:44;4.82;;;0.93;;
28934;SDS011;16044;52.726;-2.108;2022-08-04T09:50:29;4.82;;;0.70;;
28934;SDS011;16044;52.726;-2.108;2022-08-04T09:56:20;4.05;;;0.95;;
28934;SDS011;16044;52.726;-2.108;2022-08-04T09:59:00;4.93;;;0.75;;
28934;SDS011;16044;52.726;-2.108;2022-08-04T10:01:39;5.25;;;0.57;;
28934;SDS011;16044;52.726;-2.108;2022-08-04T10:04:08;3.78;;;0.70;;
28934;SDS011;16044;52.726;-2.108;2022-08-04T10:06:49;3.83;;;0.80;;
28934;SDS011;16044;52.726;-2.108;2022-08-04T10:13:05;5.10;;;0.93;;
28934;SDS011;16044;52.726;-2.108;2022-08-04T10:15:45;3.47;;;0.70;;
28934;SDS011;16044;52.726;-2.108;2022-08-04T10:21:25;6.85;;;0.88;;
28934;SDS011;16044;52.726;-2.108;2022-08-04T10:27:32;2.03;;;0.60;;
28934;SDS011;16044;52.726;-2.108;2022-08-04T10:30:07;3.35;;;0.60;;
28934;SDS011;16044;52.726;-2.108;2022-08-04T10:32:41;3.53;;;0.60;;
28934;SDS011;16044;52.726;-2.108;2022-08-04T10:35:20;6.75;;;0.68;;
28934;SDS011;16044;52.726;-2.108;2022-08-04T10:40:55;2.72;;;0.60;;
28934;SDS011;16044;52.726;-2.108;2022-08-04T10:46:28;5.22;;;1.20;;
28934;SDS011;16044;52.726;-2.108;2022-08-04T10:49:01;3.03;;;0.70;;
28934;SDS011;16044;52.726;-2.108;2022-08-04T10:57:00;4.87;;;0.70;;
28934;SDS011;16044;52.726;-2.108;2022-08-04T10:59:38;4.05;;;0.60;;
28934;SDS011;16044;52.726;-2.108;2022-08-04T11:05:04;3.65;;;0.57;;
28934;SDS011;16044;52.726;-2.108;2022-08-04T11:07:48;2.15;;;0.65;;
28934;SDS011;16044;52.726;-2.108;2022-08-04T11:10:20;4.68;;;0.55;;
28934;SDS011;16044;52.726;-2.108;2022-08-04T11:12:53;5.05;;;0.60;;
28934;SDS011;16044;52.726;-2.108;2022-08-04T11:15:41;2.43;;;0.50;;
28934;SDS011;16044;52.726;-2.108;2022-08-04T11:18:25;3.13;;;0.50;;
28934;SDS011;16044;52.726;-2.108;2022-08-04T11:21:23;4.18;;;0.63;;
28934;SDS011;16044;52.726;-2.108;2022-08-04T11:24:02;2.47;;;0.70;;
28934;SDS011;16044;52.726;-2.108;2022-08-04T11:27:01;3.05;;;0.60;;
28934;SDS011;16044;52.726;-2.108;2022-08-04T11:30:09;8.52;;;0.70;;
28934;SDS011;16044;52.726;-2.108;2022-08-04T11:32:33;8.65;;;0.73;;
28934;SDS011;16044;52.726;-2.108;2022-08-04T11:35:23;3.38;;;0.60;;
28934;SDS011;16044;52.726;-2.108;2022-08-04T11:40:39;3.38;;;0.60;;
28934;SDS011;16044;52.726;-2.108;2022-08-04T11:46:33;4.38;;;0.52;;
28934;SDS011;16044;52.726;-2.108;2022-08-04T11:49:07;3.88;;;0.55;;
28934;SDS011;16044;52.726;-2.108;2022-08-04T11:51:41;3.33;;;0.60;;
28934;SDS011;16044;52.726;-2.108;2022-08-04T11:54:11;3.28;;;0.73;;
28934;SDS011;16044;52.726;-2.108;2022-08-04T11:56:39;1.50;;;0.57;;
28934;SDS011;16044;52.726;-2.108;2022-08-04T11:59:06;2.25;;;0.50;;
28934;SDS011;16044;52.726;-2.108;2022-08-04T12:01:41;1.52;;;0.30;;
28934;SDS011;16044;52.726;-2.108;2022-08-04T12:16:23;3.65;;;0.50;;
28934;SDS011;16044;52.726;-2.108;2022-08-04T12:19:02;1.33;;;0.40;;
28934;SDS011;16044;52.726;-2.108;2022-08-04T12:21:51;1.27;;;0.40;;
28934;SDS011;16044;52.726;-2.108;2022-08-04T12:24:25;1.88;;;0.60;;
28934;SDS011;16044;52.726;-2.108;2022-08-04T12:27:16;5.40;;;0.63;;
28934;SDS011;16044;52.726;-2.108;2022-08-04T12:29:55;4.97;;;0.55;;
28934;SDS011;16044;52.726;-2.108;2022-08-04T12:32:50;1.77;;;0.55;;
28934;SDS011;16044;52.726;-2.108;2022-08-04T12:35:38;3.55;;;0.50;;
28934;SDS011;16044;52.726;-2.108;2022-08-04T12:38:31;3.73;;;0.50;;
28934;SDS011;16044;52.726;-2.108;2022-08-04T12:40:59;2.22;;;0.40;;
28934;SDS011;16044;52.726;-2.108;2022-08-04T12:43:34;3.88;;;0.60;;
28934;SDS011;16044;52.726;-2.108;2022-08-04T12:46:05;3.90;;;0.45;;
28934;SDS011;16044;52.726;-2.108;2022-08-04T12:48:37;3.05;;;0.52;;
28934;SDS011;16044;52.726;-2.108;2022-08-04T12:51:06;3.05;;;0.50;;
28934;SDS011;16044;52.726;-2.108;2022-08-04T12:53:55;2.67;;;0.40;;
28934;SDS011;16044;52.726;-2.108;2022-08-04T12:56:24;4.93;;;0.60;;
28934;SDS011;16044;52.726;-2.108;2022-08-04T12:58:59;4.25;;;0.50;;
28934;SDS011;16044;52.726;-2.108;2022-08-04T13:01:30;3.00;;;0.55;;
28934;SDS011;16044;52.726;-2.108;2022-08-04T13:04:20;3.00;;;0.50;;
28934;SDS011;16044;52.726;-2.108;2022-08-04T13:07:06;1.75;;;0.40;;
28934;SDS011;16044;52.726;-2.108;2022-08-04T13:09:37;2.65;;;0.60;;
28934;SDS011;16044;52.726;-2.108;2022-08-04T13:12:10;3.20;;;0.65;;
28934;SDS011;16044;52.726;-2.108;2022-08-04T13:14:41;5.72;;;0.60;;
28934;SDS011;16044;52.726;-2.108;2022-08-04T13:17:10;4.07;;;0.50;;
28934;SDS011;16044;52.726;-2.108;2022-08-04T13:19:37;2.50;;;0.60;;
28934;SDS011;16044;52.726;-2.108;2022-08-04T13:22:27;2.95;;;0.50;;
28934;SDS011;16044;52.726;-2.108;2022-08-04T13:24:56;3.90;;;0.90;;
28934;SDS011;16044;52.726;-2.108;2022-08-04T13:27:45;4.22;;;0.90;;
28934;SDS011;16044;52.726;-2.108;2022-08-04T13:30:20;3.25;;;0.65;;
28934;SDS011;16044;52.726;-2.108;2022-08-04T13:32:52;7.22;;;0.90;;
28934;SDS011;16044;52.726;-2.108;2022-08-04T13:35:27;3.67;;;0.82;;
28934;SDS011;16044;52.726;-2.108;2022-08-04T13:38:16;3.97;;;0.80;;
28934;SDS011;16044;52.726;-2.108;2022-08-04T13:40:44;4.20;;;0.80;;
28934;SDS011;16044;52.726;-2.108;2022-08-04T13:43:22;7.03;;;0.98;;
28934;SDS011;16044;52.726;-2.108;2022-08-04T13:46:17;4.35;;;0.60;;
28934;SDS011;16044;52.726;-2.108;2022-08-04T13:48:57;1.63;;;0.50;;
28934;SDS011;16044;52.726;-2.108;2022-08-04T13:51:50;2.63;;;0.57;;
28934;SDS011;16044;52.726;-2.108;2022-08-04T13:54:46;2.55;;;0.63;;
28934;SDS011;16044;52.726;-2.108;2022-08-04T13:57:22;2.60;;;0.60;;
28934;SDS011;16044;52.726;-2.108;2022-08-04T13:59:59;4.78;;;0.80;;
28934;SDS011;16044;52.726;-2.108;2022-08-04T14:02:37;9.00;;;1.30;;
28934;SDS011;16044;52.726;-2.108;2022-08-04T14:05:08;6.85;;;1.08;;
28934;SDS011;16044;52.726;-2.108;2022-08-04T14:07:57;3.90;;;0.70;;
28934;SDS011;16044;52.726;-2.108;2022-08-04T14:10:32;7.65;;;0.80;;
28934;SDS011;16044;52.726;-2.108;2022-08-04T14:13:02;6.45;;;0.90;;
28934;SDS011;16044;52.726;-2.108;2022-08-04T14:15:37;5.13;;;0.98;;
28934;SDS011;16044;52.726;-2.108;2022-08-04T14:18:28;4.25;;;0.80;;
28934;SDS011;16044;52.726;-2.108;2022-08-04T14:23:46;7.47;;;0.93;;
28934;SDS011;16044;52.726;-2.108;2022-08-04T14:28:44;2.38;;;0.40;;
28934;SDS011;16044;52.726;-2.108;2022-08-04T14:31:32;4.22;;;0.80;;
28934;SDS011;16044;52.726;-2.108;2022-08-04T14:33:59;3.15;;;0.60;;
28934;SDS011;16044;52.726;-2.108;2022-08-04T14:36:43;3.88;;;0.63;;
28934;SDS011;16044;52.726;-2.108;2022-08-04T14:42:39;5.20;;;0.77;;
28934;SDS011;16044;52.726;-2.108;2022-08-04T14:45:31;5.43;;;0.95;;
28934;SDS011;16044;52.726;-2.108;2022-08-04T14:48:19;1.95;;;0.50;;
28934;SDS011;16044;52.726;-2.108;2022-08-04T14:50:47;2.50;;;0.57;;
28934;SDS011;16044;52.726;-2.108;2022-08-04T14:55:54;1.80;;;0.60;;
28934;SDS011;16044;52.726;-2.108;2022-08-04T14:58:27;5.82;;;0.90;;
28934;SDS011;16044;52.726;-2.108;2022-08-04T15:01:06;5.45;;;0.60;;
28934;SDS011;16044;52.726;-2.108;2022-08-04T15:03:42;6.07;;;0.70;;
28934;SDS011;16044;52.726;-2.108;2022-08-04T15:06:17;4.35;;;0.57;;
28934;SDS011;16044;52.726;-2.108;2022-08-04T15:08:49;6.45;;;0.57;;
28934;SDS011;16044;52.726;-2.108;2022-08-04T15:11:19;7.78;;;0.75;;
28934;SDS011;16044;52.726;-2.108;2022-08-04T15:13:48;4.80;;;0.60;;
28934;SDS011;16044;52.726;-2.108;2022-08-04T15:16:16;5.68;;;0.70;;
28934;SDS011;16044;52.726;-2.108;2022-08-04T15:18:43;6.88;;;0.68;;
28934;SDS011;16044;52.726;-2.108;2022-08-04T15:21:15;3.47;;;0.60;;
28934;SDS011;16044;52.726;-2.108;2022-08-04T15:23:42;4.05;;;0.80;;
28934;SDS011;16044;52.726;-2.108;2022-08-04T15:26:11;4.53;;;0.80;;
28934;SDS011;16044;52.726;-2.108;2022-08-04T15:28:44;3.67;;;0.82;;
28934;SDS011;16044;52.726;-2.108;2022-08-04T15:31:17;3.47;;;0.80;;
28934;SDS011;16044;52.726;-2.108;2022-08-04T15:34:07;7.32;;;1.00;;
28934;SDS011;16044;52.726;-2.108;2022-08-04T15:36:52;3.25;;;0.90;;
28934;SDS011;16044;52.726;-2.108;2022-08-04T15:42:10;2.58;;;0.70;;
28934;SDS011;16044;52.726;-2.108;2022-08-04T15:48:21;2.92;;;0.60;;
28934;SDS011;16044;52.726;-2.108;2022-08-04T15:53:21;5.22;;;0.70;;
28934;SDS011;16044;52.726;-2.108;2022-08-04T15:58:52;3.13;;;0.65;;
28934;SDS011;16044;52.726;-2.108;2022-08-04T16:01:20;4.38;;;0.70;;
28934;SDS011;16044;52.726;-2.108;2022-08-04T16:03:49;4.05;;;0.73;;
28934;SDS011;16044;52.726;-2.108;2022-08-04T16:09:02;3.30;;;0.50;;
28934;SDS011;16044;52.726;-2.108;2022-08-04T16:14:09;3.00;;;0.73;;
28934;SDS011;16044;52.726;-2.108;2022-08-04T16:22:01;2.47;;;0.40;;
28934;SDS011;16044;52.726;-2.108;2022-08-04T16:27:11;3.42;;;0.50;;
28934;SDS011;16044;52.726;-2.108;2022-08-04T16:29:40;7.95;;;0.77;;
28934;SDS011;16044;52.726;-2.108;2022-08-04T16:35:03;2.65;;;0.60;;
28934;SDS011;16044;52.726;-2.108;2022-08-04T16:37:34;3.83;;;0.80;;
28934;SDS011;16044;52.726;-2.108;2022-08-04T16:43:04;4.22;;;0.60;;
28934;SDS011;16044;52.726;-2.108;2022-08-04T16:45:38;3.45;;;0.63;;
28934;SDS011;16044;52.726;-2.108;2022-08-04T16:48:09;3.35;;;0.98;;
28934;SDS011;16044;52.726;-2.108;2022-08-04T16:51:11;5.57;;;0.70;;
28934;SDS011;16044;52.726;-2.108;2022-08-04T16:53:33;5.60;;;0.70;;
28934;SDS011;16044;52.726;-2.108;2022-08-04T16:59:04;3.00;;;0.75;;
28934;SDS011;16044;52.726;-2.108;2022-08-04T17:01:36;5.18;;;0.50;;
28934;SDS011;16044;52.726;-2.108;2022-08-04T17:06:38;4.18;;;0.77;;
28934;SDS011;16044;52.726;-2.108;2022-08-04T17:09:09;3.05;;;0.75;;
28934;SDS011;16044;52.726;-2.108;2022-08-04T17:11:40;2.45;;;0.50;;
28934;SDS011;16044;52.726;-2.108;2022-08-04T17:14:09;3.15;;;0.50;;
28934;SDS011;16044;52.726;-2.108;2022-08-04T17:16:38;5.43;;;0.40;;
28934;SDS011;16044;52.726;-2.108;2022-08-04T17:19:08;2.47;;;0.40;;
28934;SDS011;16044;52.726;-2.108;2022-08-04T17:21:59;4.47;;;0.80;;
28934;SDS011;16044;52.726;-2.108;2022-08-04T17:24:32;5.60;;;0.70;;
28934;SDS011;16044;52.726;-2.108;2022-08-04T17:27:02;2.50;;;0.45;;
28934;SDS011;16044;52.726;-2.108;2022-08-04T17:29:50;3.75;;;0.65;;
28934;SDS011;16044;52.726;-2.108;2022-08-04T17:32:18;3.60;;;0.77;;
28934;SDS011;16044;52.726;-2.108;2022-08-04T17:34:58;3.38;;;0.65;;
28934;SDS011;16044;52.726;-2.108;2022-08-04T17:37:29;2.78;;;0.60;;
28934;SDS011;16044;52.726;-2.108;2022-08-04T17:40:16;2.20;;;0.43;;
28934;SDS011;16044;52.726;-2.108;2022-08-04T17:43:04;3.25;;;0.50;;
28934;SDS011;16044;52.726;-2.108;2022-08-04T17:54:32;3.55;;;0.70;;
28934;SDS011;16044;52.726;-2.108;2022-08-04T17:57:18;6.07;;;0.70;;
28934;SDS011;16044;52.726;-2.108;2022-08-04T17:59:54;2.97;;;0.60;;
28934;SDS011;16044;52.726;-2.108;2022-08-04T18:02:29;2.95;;;0.60;;
28934;SDS011;16044;52.726;-2.108;2022-08-04T18:05:03;5.28;;;0.70;;
28934;SDS011;16044;52.726;-2.108;2022-08-04T18:07:40;4.30;;;0.90;;
28934;SDS011;16044;52.726;-2.108;2022-08-04T18:10:35;3.58;;;0.95;;
28934;SDS011;16044;52.726;-2.108;2022-08-04T18:13:21;3.03;;;0.65;;
28934;SDS011;16044;52.726;-2.108;2022-08-04T18:15:59;3.55;;;0.70;;
28934;SDS011;16044;52.726;-2.108;2022-08-04T18:18:28;4.38;;;0.93;;
28934;SDS011;16044;52.726;-2.108;2022-08-04T18:20:55;4.18;;;0.93;;
28934;SDS011;16044;52.726;-2.108;2022-08-04T18:23:28;2.60;;;0.65;;
28934;SDS011;16044;52.726;-2.108;2022-08-04T18:25:57;6.80;;;0.90;;
28934;SDS011;16044;52.726;-2.108;2022-08-04T18:28:27;6.85;;;0.90;;
28934;SDS011;16044;52.726;-2.108;2022-08-04T18:30:58;5.82;;;0.90;;
28934;SDS011;16044;52.726;-2.108;2022-08-04T18:33:26;8.30;;;0.90;;
28934;SDS011;16044;52.726;-2.108;2022-08-04T18:36:07;4.35;;;0.82;;
28934;SDS011;16044;52.726;-2.108;2022-08-04T18:38:57;4.05;;;0.80;;
28934;SDS011;16044;52.726;-2.108;2022-08-04T18:41:44;6.47;;;0.80;;
28934;SDS011;16044;52.726;-2.108;2022-08-04T18:44:28;2.47;;;0.70;;
28934;SDS011;16044;52.726;-2.108;2022-08-04T18:46:57;4.13;;;0.70;;
28934;SDS011;16044;52.726;-2.108;2022-08-04T18:49:45;5.07;;;0.60;;
28934;SDS011;16044;52.726;-2.108;2022-08-04T18:52:32;2.78;;;0.65;;
28934;SDS011;16044;52.726;-2.108;2022-08-04T18:55:07;3.72;;;0.70;;
28934;SDS011;16044;52.726;-2.108;2022-08-04T18:57:37;5.40;;;0.75;;
28934;SDS011;16044;52.726;-2.108;2022-08-04T19:00:24;3.53;;;0.75;;
28934;SDS011;16044;52.726;-2.108;2022-08-04T19:02:51;4.20;;;1.00;;
28934;SDS011;16044;52.726;-2.108;2022-08-04T19:05:18;3.80;;;0.70;;
28934;SDS011;16044;52.726;-2.108;2022-08-04T19:07:46;4.38;;;0.80;;
28934;SDS011;16044;52.726;-2.108;2022-08-04T19:10:27;4.85;;;1.08;;
28934;SDS011;16044;52.726;-2.108;2022-08-04T19:12:54;4.32;;;0.93;;
28934;SDS011;16044;52.726;-2.108;2022-08-04T19:15:24;4.05;;;0.65;;
28934;SDS011;16044;52.726;-2.108;2022-08-04T19:18:00;2.58;;;0.65;;
28934;SDS011;16044;52.726;-2.108;2022-08-04T19:20:32;5.63;;;0.70;;
28934;SDS011;16044;52.726;-2.108;2022-08-04T19:23:02;3.15;;;0.90;;
28934;SDS011;16044;52.726;-2.108;2022-08-04T19:25:49;3.53;;;0.80;;
28934;SDS011;16044;52.726;-2.108;2022-08-04T19:28:29;5.00;;;0.70;;
28934;SDS011;16044;52.726;-2.108;2022-08-04T19:31:00;6.03;;;0.70;;
28934;SDS011;16044;52.726;-2.108;2022-08-04T19:33:30;2.70;;;0.70;;
28934;SDS011;16044;52.726;-2.108;2022-08-04T19:36:18;4.35;;;0.60;;
28934;SDS011;16044;52.726;-2.108;2022-08-04T19:38:53;3.47;;;0.75;;
28934;SDS011;16044;52.726;-2.108;2022-08-04T19:41:25;2.83;;;0.60;;
28934;SDS011;16044;52.726;-2.108;2022-08-04T19:43:56;4.13;;;0.75;;
28934;SDS011;16044;52.726;-2.108;2022-08-04T19:46:23;4.03;;;0.60;;
28934;SDS011;16044;52.726;-2.108;2022-08-04T19:48:53;3.95;;;0.63;;
28934;SDS011;16044;52.726;-2.108;2022-08-04T19:51:26;4.22;;;0.70;;
28934;SDS011;16044;52.726;-2.108;2022-08-04T19:53:54;6.15;;;1.00;;
28934;SDS011;16044;52.726;-2.108;2022-08-04T19:56:36;3.90;;;0.68;;
28934;SDS011;16044;52.726;-2.108;2022-08-04T19:59:06;4.13;;;0.60;;
28934;SDS011;16044;52.726;-2.108;2022-08-04T20:01:35;3.45;;;0.70;;
28934;SDS011;16044;52.726;-2.108;2022-08-04T20:06:38;3.55;;;0.88;;
28934;SDS011;16044;52.726;-2.108;2022-08-04T20:09:06;4.60;;;0.90;;
28934;SDS011;16044;52.726;-2.108;2022-08-04T20:11:51;6.63;;;0.93;;
28934;SDS011;16044;52.726;-2.108;2022-08-04T20:14:23;6.45;;;1.10;;
28934;SDS011;16044;52.726;-2.108;2022-08-04T20:16:59;4.07;;;0.88;;
28934;SDS011;16044;52.726;-2.108;2022-08-04T20:19:36;4.90;;;0.77;;
28934;SDS011;16044;52.726;-2.108;2022-08-04T20:22:04;4.95;;;1.02;;
28934;SDS011;16044;52.726;-2.108;2022-08-04T20:24:51;4.72;;;0.90;;
28934;SDS011;16044;52.726;-2.108;2022-08-04T20:27:39;5.20;;;0.90;;
28934;SDS011;16044;52.726;-2.108;2022-08-04T20:30:26;4.32;;;0.75;;
28934;SDS011;16044;52.726;-2.108;2022-08-04T20:32:57;5.45;;;0.93;;